createdAt,value
2018-06-30T00:02:16.304Z,25.00
2018-06-30T00:04:53.220Z,25.00
2018-06-30T00:07:21.524Z,25.00
2018-06-30T00:09:48.448Z,25.00
2018-06-30T00:12:15.351Z,25.00
2018-06-30T00:14:42.295Z,25.00
2018-06-30T00:17:09.188Z,25.00
2018-06-30T00:19:36.150Z,25.00
2018-06-30T00:24:29.920Z,25.00
2018-06-30T00:27:02.363Z,25.00
2018-06-30T00:29:29.311Z,25.00
2018-06-30T00:31:56.308Z,25.00
2018-06-30T00:34:23.243Z,25.00
2018-06-30T00:36:50.164Z,25.00
2018-06-30T00:39:17.072Z,25.00
2018-06-30T00:41:43.979Z,25.00
2018-06-30T00:44:10.880Z,25.00
2018-06-30T00:46:37.789Z,25.00
2018-06-30T00:49:04.722Z,25.00
2018-06-30T00:51:31.660Z,25.00
2018-06-30T00:53:58.564Z,24.90
2018-06-30T00:56:25.492Z,24.90
2018-06-30T00:58:52.416Z,25.00
2018-06-30T01:01:19.304Z,25.00
2018-06-30T01:03:46.285Z,25.00
2018-06-30T01:06:13.167Z,25.00
2018-06-30T01:08:40.098Z,25.00
2018-06-30T01:11:07.007Z,24.90
2018-06-30T01:13:33.912Z,24.90
2018-06-30T01:16:00.851Z,25.00
2018-06-30T01:18:27.771Z,25.00
2018-06-30T01:20:54.691Z,25.00
2018-06-30T01:23:21.599Z,25.00
2018-06-30T01:25:48.555Z,24.90
2018-06-30T01:28:15.459Z,24.90
2018-06-30T01:30:42.389Z,25.00
2018-06-30T01:33:09.280Z,25.00
2018-06-30T01:35:36.208Z,24.90
2018-06-30T01:38:03.140Z,25.00
2018-06-30T01:40:30.063Z,25.00
2018-06-30T01:42:56.959Z,24.90
2018-06-30T01:45:23.879Z,24.90
2018-06-30T01:47:50.777Z,24.90
2018-06-30T01:50:17.696Z,24.90
2018-06-30T01:52:44.599Z,24.90
2018-06-30T01:55:11.551Z,24.90
2018-06-30T01:57:38.432Z,24.90
2018-06-30T02:00:05.385Z,25.00
2018-06-30T02:02:32.274Z,24.90
2018-06-30T02:04:59.208Z,24.90
2018-06-30T02:07:26.092Z,24.90
2018-06-30T02:12:19.843Z,24.90
2018-06-30T02:14:46.753Z,24.90
2018-06-30T02:17:13.659Z,24.90
2018-06-30T02:19:40.568Z,24.90
2018-06-30T02:22:07.463Z,24.90
2018-06-30T02:27:01.292Z,24.90
2018-06-30T02:29:28.171Z,24.90
2018-06-30T02:31:55.108Z,24.90
2018-06-30T02:34:22.177Z,24.90
2018-06-30T02:36:49.153Z,24.90
2018-06-30T02:39:16.032Z,24.90
2018-06-30T02:41:42.943Z,24.90
2018-06-30T02:44:09.823Z,24.90
2018-06-30T02:46:36.745Z,24.90
2018-06-30T02:49:03.687Z,24.90
2018-06-30T02:51:31.604Z,24.90
2018-06-30T02:53:58.504Z,24.90
2018-06-30T02:56:25.451Z,24.90
2018-06-30T02:58:52.603Z,24.90
2018-06-30T03:01:19.505Z,24.90
2018-06-30T03:03:46.428Z,24.90
2018-06-30T03:06:13.317Z,24.90
2018-06-30T03:08:40.268Z,24.90
2018-06-30T03:11:07.152Z,24.90
2018-06-30T03:13:34.124Z,24.90
2018-06-30T03:16:01.008Z,24.90
2018-06-30T03:18:28.108Z,24.90
2018-06-30T03:20:54.989Z,24.90
2018-06-30T03:23:21.927Z,24.90
2018-06-30T03:25:48.819Z,24.90
2018-06-30T03:28:15.740Z,24.90
2018-06-30T03:30:42.624Z,24.90
2018-06-30T03:33:09.562Z,24.90
2018-06-30T03:38:03.413Z,24.90
2018-06-30T03:40:30.324Z,24.90
2018-06-30T03:42:57.232Z,24.80
2018-06-30T03:47:51.253Z,24.90
2018-06-30T03:50:18.132Z,24.80
2018-06-30T03:52:45.038Z,24.80
2018-06-30T03:55:11.989Z,24.90
2018-06-30T03:57:38.860Z,24.90
2018-06-30T04:00:06.115Z,24.90
2018-06-30T04:02:33.013Z,24.90
2018-06-30T04:04:59.959Z,24.90
2018-06-30T04:07:26.852Z,24.90
2018-06-30T04:09:53.808Z,24.90
2018-06-30T04:12:23.695Z,24.80
2018-06-30T04:14:50.620Z,24.90
2018-06-30T04:17:17.500Z,24.80
2018-06-30T04:19:44.454Z,24.90
2018-06-30T04:22:11.437Z,24.90
2018-06-30T04:24:38.316Z,24.80
2018-06-30T04:27:05.209Z,24.80
2018-06-30T04:29:32.168Z,24.90
2018-06-30T04:31:59.063Z,24.90
2018-06-30T04:34:25.990Z,24.90
2018-06-30T04:36:52.911Z,24.90
2018-06-30T04:39:19.836Z,25.00
2018-06-30T04:41:46.720Z,25.00
2018-06-30T04:44:13.639Z,25.00
2018-06-30T04:46:40.584Z,25.00
2018-06-30T04:49:07.500Z,25.00
2018-06-30T04:51:34.416Z,25.10
2018-06-30T04:54:01.320Z,25.10
2018-06-30T04:56:28.263Z,25.10
2018-06-30T04:58:55.143Z,25.10
2018-06-30T05:01:22.072Z,25.10
2018-06-30T05:03:48.951Z,25.10
2018-06-30T05:06:15.962Z,25.10
2018-06-30T05:08:42.902Z,25.10
2018-06-30T05:11:09.877Z,25.10
2018-06-30T05:13:36.800Z,25.20
2018-06-30T05:16:04.021Z,25.20
2018-06-30T05:18:30.916Z,25.20
2018-06-30T05:20:57.848Z,25.30
2018-06-30T05:23:24.729Z,25.30
2018-06-30T05:25:51.679Z,25.30
2018-06-30T05:28:18.559Z,25.30
2018-06-30T05:30:46.276Z,25.30
2018-06-30T05:33:13.238Z,25.40
2018-06-30T05:35:40.114Z,25.40
2018-06-30T05:38:07.111Z,25.40
2018-06-30T05:45:27.895Z,25.50
2018-06-30T05:47:54.831Z,25.50
2018-06-30T05:50:21.752Z,25.60
2018-06-30T05:52:49.236Z,25.50
2018-06-30T05:55:16.203Z,25.60
2018-06-30T05:57:43.169Z,25.60
2018-06-30T06:00:10.439Z,25.70
2018-06-30T06:02:37.500Z,25.70
2018-06-30T06:05:05.366Z,25.80
2018-06-30T06:07:32.343Z,25.80
2018-06-30T06:09:59.387Z,25.80
2018-06-30T06:12:26.273Z,25.90
2018-06-30T06:17:20.468Z,26.00
2018-06-30T06:19:47.392Z,26.00
2018-06-30T06:22:14.547Z,26.00
2018-06-30T06:24:41.459Z,26.10
2018-06-30T06:27:08.383Z,26.10
2018-06-30T06:29:35.288Z,26.10
2018-06-30T06:32:02.216Z,26.20
2018-06-30T06:34:29.135Z,26.20
2018-06-30T06:36:56.061Z,26.20
2018-06-30T06:39:22.964Z,26.30
2018-06-30T06:41:50.153Z,26.30
2018-06-30T06:44:17.096Z,26.30
2018-06-30T06:46:44.085Z,26.30
2018-06-30T06:49:10.964Z,26.30
2018-06-30T06:51:38.567Z,26.40
2018-06-30T06:54:05.456Z,26.40
2018-06-30T06:56:32.382Z,26.40
2018-06-30T06:58:59.312Z,26.40
2018-06-30T07:01:26.204Z,26.40
2018-06-30T07:08:46.775Z,26.50
2018-06-30T07:11:13.716Z,26.40
2018-06-30T07:13:40.648Z,26.50
2018-06-30T07:16:07.555Z,26.50
2018-06-30T07:23:28.161Z,26.50
2018-06-30T07:25:55.232Z,26.50
2018-06-30T07:33:15.846Z,26.60
2018-06-30T07:35:42.748Z,26.50
2018-06-30T07:38:09.660Z,26.50
2018-06-30T07:40:37.147Z,26.60
2018-06-30T07:43:05.673Z,26.60
2018-06-30T07:45:32.596Z,26.60
2018-06-30T07:47:59.668Z,26.60
2018-06-30T07:50:26.942Z,26.50
2018-06-30T07:52:54.350Z,26.50
2018-06-30T07:55:21.260Z,26.60
2018-06-30T07:57:48.197Z,26.60
2018-06-30T08:00:15.104Z,26.60
2018-06-30T08:02:42.195Z,26.60
2018-06-30T08:05:09.067Z,26.50
2018-06-30T08:07:36.022Z,26.50
2018-06-30T08:10:02.999Z,26.50
2018-06-30T08:14:56.750Z,26.50
2018-06-30T08:17:23.651Z,26.60
2018-06-30T08:19:50.560Z,26.60
2018-06-30T08:22:17.472Z,26.60
2018-06-30T08:24:45.816Z,26.60
2018-06-30T08:27:12.765Z,26.50
2018-06-30T08:29:39.681Z,26.50
2018-06-30T08:32:06.608Z,26.50
2018-06-30T08:34:33.571Z,26.50
2018-06-30T08:39:27.371Z,26.50
2018-06-30T08:41:54.375Z,26.50
2018-06-30T08:44:21.346Z,26.50
2018-06-30T08:46:48.327Z,26.50
2018-06-30T08:49:16.125Z,26.40
2018-06-30T08:51:43.047Z,26.40
2018-06-30T08:54:09.960Z,26.40
2018-06-30T08:56:36.928Z,26.30
2018-06-30T08:59:04.983Z,26.20
2018-06-30T09:01:38.610Z,26.20
2018-06-30T09:04:05.781Z,26.20
2018-06-30T09:06:32.750Z,26.20
2018-06-30T09:08:59.652Z,26.10
2018-06-30T09:11:26.568Z,26.10
2018-06-30T09:13:53.502Z,26.10
2018-06-30T09:16:20.436Z,26.00
2018-06-30T09:18:47.351Z,26.00
2018-06-30T09:21:14.274Z,26.00
2018-06-30T09:23:41.216Z,26.00
2018-06-30T09:26:08.130Z,26.00
2018-06-30T09:28:35.033Z,26.00
2018-06-30T09:31:02.487Z,26.00
2018-06-30T09:33:29.412Z,26.00
2018-06-30T09:35:56.364Z,25.90
2018-06-30T09:38:23.235Z,25.90
2018-06-30T09:40:50.177Z,25.90
2018-06-30T09:43:17.060Z,25.90
2018-06-30T09:45:44.017Z,25.80
2018-06-30T09:48:10.929Z,25.90
2018-06-30T09:50:37.851Z,25.90
2018-06-30T09:53:04.785Z,25.90
2018-06-30T09:55:31.710Z,25.90
2018-06-30T09:57:58.639Z,25.90
2018-06-30T10:00:31.128Z,25.80
2018-06-30T10:02:58.075Z,25.80
2018-06-30T10:05:25.025Z,25.80
2018-06-30T10:07:51.987Z,25.80
2018-06-30T10:12:45.772Z,25.80
2018-06-30T10:15:12.688Z,25.80
2018-06-30T10:17:39.702Z,25.80
2018-06-30T10:20:06.608Z,25.80
2018-06-30T10:22:33.499Z,25.70
2018-06-30T10:25:00.405Z,25.80
2018-06-30T10:27:27.324Z,25.80
2018-06-30T10:29:54.261Z,25.80
2018-06-30T10:32:21.167Z,25.70
2018-06-30T10:34:48.073Z,25.70
2018-06-30T10:37:14.989Z,25.70
2018-06-30T10:39:41.894Z,25.70
2018-06-30T10:42:08.847Z,25.70
2018-06-30T10:44:35.832Z,25.70
2018-06-30T10:47:02.720Z,25.70
2018-06-30T10:49:29.629Z,25.70
2018-06-30T10:51:56.540Z,25.70
2018-06-30T10:54:23.455Z,25.70
2018-06-30T10:56:50.407Z,25.70
2018-06-30T10:59:17.294Z,25.70
2018-06-30T11:01:44.212Z,25.70
2018-06-30T11:04:11.143Z,25.70
2018-06-30T11:06:38.120Z,25.70
2018-06-30T11:09:06.687Z,25.60
2018-06-30T11:11:33.587Z,25.60
2018-06-30T11:16:27.320Z,25.60
2018-06-30T11:18:54.244Z,25.60
2018-06-30T11:21:21.139Z,25.60
2018-06-30T11:23:48.068Z,25.60
2018-06-30T11:26:14.947Z,25.60
2018-06-30T11:28:41.936Z,25.60
2018-06-30T11:31:08.820Z,25.60
2018-06-30T11:33:35.769Z,25.60
2018-06-30T11:38:29.712Z,25.60
2018-06-30T11:40:56.835Z,25.60
2018-06-30T11:43:23.672Z,25.60
2018-06-30T11:45:52.119Z,25.60
2018-06-30T11:48:19.080Z,25.60
2018-06-30T11:50:46.120Z,25.60
2018-06-30T11:55:39.882Z,25.60
2018-06-30T11:58:06.912Z,25.60
2018-06-30T12:00:34.803Z,25.60
2018-06-30T12:03:05.015Z,25.60
2018-06-30T12:05:31.957Z,25.60
2018-06-30T12:07:58.900Z,25.60
2018-06-30T12:10:25.827Z,25.60
2018-06-30T12:12:52.863Z,25.60
2018-06-30T12:15:19.778Z,25.60
2018-06-30T12:17:46.767Z,25.60
2018-06-30T12:20:13.681Z,25.60
2018-06-30T12:22:40.593Z,25.60
2018-06-30T12:25:07.801Z,25.60
2018-06-30T12:27:34.720Z,25.60
2018-06-30T12:30:01.668Z,25.60
2018-06-30T12:32:28.584Z,25.60
2018-06-30T12:34:55.547Z,25.50
2018-06-30T12:37:22.483Z,25.50
2018-06-30T12:39:49.383Z,25.60
2018-06-30T12:42:16.286Z,25.60
2018-06-30T12:44:43.213Z,25.60
2018-06-30T12:47:10.116Z,25.50
2018-06-30T12:49:37.031Z,25.50
2018-06-30T12:52:03.983Z,25.60
2018-06-30T12:54:31.096Z,25.50
2018-06-30T12:56:57.900Z,25.50
2018-06-30T12:59:24.788Z,25.60
2018-06-30T13:01:51.748Z,25.50
2018-06-30T13:04:18.628Z,25.50
2018-06-30T13:06:45.563Z,25.50
2018-06-30T13:09:13.211Z,25.60
2018-06-30T13:11:40.220Z,25.50
2018-06-30T13:14:07.362Z,25.50
2018-06-30T13:16:34.823Z,25.50
2018-06-30T13:19:01.752Z,25.50
2018-06-30T13:21:28.719Z,25.50
2018-06-30T13:23:55.890Z,25.50
2018-06-30T13:26:22.841Z,25.50
2018-06-30T13:28:49.762Z,25.50
2018-06-30T13:31:18.295Z,25.50
2018-06-30T13:33:45.174Z,25.50
2018-06-30T13:38:38.940Z,25.50
2018-06-30T13:41:05.899Z,25.50
2018-06-30T13:43:32.857Z,25.50
2018-06-30T13:48:26.596Z,25.50
2018-06-30T13:50:53.545Z,25.50
2018-06-30T13:53:20.434Z,25.50
2018-06-30T13:55:47.381Z,25.50
2018-06-30T14:00:41.139Z,25.50
2018-06-30T14:03:08.045Z,25.50
2018-06-30T14:05:34.958Z,25.50
2018-06-30T14:08:02.138Z,25.50
2018-06-30T14:10:29.056Z,25.50
2018-06-30T14:12:56.022Z,25.50
2018-06-30T14:15:22.912Z,25.50
2018-06-30T14:17:49.816Z,25.50
2018-06-30T14:20:16.776Z,25.50
2018-06-30T14:22:43.744Z,25.50
2018-06-30T14:25:11.291Z,25.50
2018-06-30T14:27:39.040Z,25.50
2018-06-30T14:30:07.919Z,25.60
2018-06-30T14:32:34.887Z,25.60
2018-06-30T14:35:01.832Z,25.60
2018-06-30T14:37:29.327Z,25.60
2018-06-30T14:39:56.215Z,25.60
2018-06-30T14:42:23.831Z,25.60
2018-06-30T14:44:51.302Z,25.60
2018-06-30T14:47:18.208Z,25.70
2018-06-30T14:49:45.112Z,25.70
2018-06-30T14:52:13.058Z,25.70
2018-06-30T14:54:39.960Z,25.70
2018-06-30T14:57:07.289Z,25.70
2018-06-30T14:59:34.219Z,25.70
2018-06-30T15:02:01.678Z,25.80
2018-06-30T15:04:28.801Z,25.80
2018-06-30T15:06:56.270Z,25.80
2018-06-30T15:09:23.198Z,25.80
2018-06-30T15:11:50.124Z,25.80
2018-06-30T15:14:17.040Z,25.80
2018-06-30T15:16:44.963Z,25.80
2018-06-30T15:19:11.921Z,25.80
2018-06-30T15:21:38.853Z,25.90
2018-06-30T15:24:06.756Z,25.90
2018-06-30T15:26:34.132Z,25.90
2018-06-30T15:29:01.059Z,25.90
2018-06-30T15:31:28.639Z,25.90
2018-06-30T15:33:55.582Z,25.90
2018-06-30T15:36:22.631Z,25.90
2018-06-30T15:41:17.016Z,25.90
2018-06-30T15:43:43.944Z,26.00
2018-06-30T15:46:11.488Z,26.00
2018-06-30T15:48:38.383Z,26.00
2018-06-30T15:51:06.173Z,26.00
2018-06-30T15:53:33.080Z,26.00
2018-06-30T15:56:00.576Z,26.00
2018-06-30T15:58:27.868Z,26.00
2018-06-30T16:00:54.771Z,26.00
2018-06-30T16:03:21.716Z,26.00
2018-06-30T16:05:48.660Z,26.00
2018-06-30T16:08:16.048Z,26.00
2018-06-30T16:10:43.673Z,26.00
2018-06-30T16:13:10.568Z,26.00
2018-06-30T16:15:38.237Z,26.00
2018-06-30T16:18:06.368Z,26.00
2018-06-30T16:20:33.320Z,25.90
2018-06-30T16:23:00.323Z,25.90
2018-06-30T16:25:27.282Z,25.90
2018-06-30T16:27:54.689Z,25.90
2018-06-30T16:30:21.667Z,25.90
2018-06-30T16:32:49.180Z,25.90
2018-06-30T16:35:16.875Z,25.90
2018-06-30T16:37:43.814Z,25.80
2018-06-30T16:40:11.137Z,25.80
2018-06-30T16:42:38.111Z,25.80
2018-06-30T16:45:05.506Z,25.80
2018-06-30T16:47:32.453Z,25.80
2018-06-30T16:52:27.505Z,25.80
2018-06-30T16:54:55.001Z,25.80
2018-06-30T16:57:22.112Z,25.80
2018-06-30T16:59:49.737Z,25.80
2018-06-30T17:02:16.753Z,25.70
2018-06-30T17:04:44.338Z,25.70
2018-06-30T17:07:12.037Z,25.70
2018-06-30T17:09:38.944Z,25.70
2018-06-30T17:12:06.312Z,25.70
2018-06-30T17:14:33.311Z,25.70
2018-06-30T17:17:00.698Z,25.70
2018-06-30T17:19:27.646Z,25.70
2018-06-30T17:21:55.004Z,25.70
2018-06-30T17:24:21.944Z,25.70
2018-06-30T17:26:49.452Z,25.70
2018-06-30T17:29:16.377Z,25.70
2018-06-30T17:31:44.119Z,25.70
2018-06-30T17:34:11.358Z,25.70
2018-06-30T17:36:38.410Z,25.60
2018-06-30T17:39:06.935Z,25.60
2018-06-30T17:41:34.128Z,25.60
2018-06-30T17:44:01.397Z,25.70
2018-06-30T17:46:28.293Z,25.70
2018-06-30T17:51:22.652Z,25.70
2018-06-30T17:53:50.703Z,25.70
2018-06-30T17:56:17.668Z,25.70
2018-06-30T17:58:44.875Z,25.70
2018-06-30T18:01:11.780Z,25.70
2018-06-30T18:03:39.797Z,25.70
2018-06-30T18:06:07.223Z,25.70
2018-06-30T18:08:34.184Z,25.60
2018-06-30T18:13:29.043Z,25.60
2018-06-30T18:15:56.373Z,25.60
2018-06-30T18:18:23.725Z,25.60
2018-06-30T18:20:51.073Z,25.60
2018-06-30T18:23:18.180Z,25.60
2018-06-30T18:25:46.036Z,25.60
2018-06-30T18:28:14.440Z,25.60
2018-06-30T18:30:42.048Z,25.60
2018-06-30T18:33:12.190Z,25.60
2018-06-30T18:35:39.415Z,25.60
2018-06-30T18:38:06.768Z,25.60
2018-06-30T18:40:33.752Z,25.60
2018-06-30T18:43:01.078Z,25.60
2018-06-30T18:45:28.008Z,25.60
2018-06-30T18:47:54.922Z,25.60
2018-06-30T18:50:21.920Z,25.60
2018-06-30T18:52:48.831Z,25.60
2018-06-30T18:55:15.774Z,25.60
2018-06-30T18:57:43.484Z,25.70
2018-06-30T19:00:10.459Z,25.70
2018-06-30T19:02:38.110Z,25.70
2018-06-30T19:05:06.080Z,25.70
2018-06-30T19:07:33.139Z,25.70
2018-06-30T19:10:00.846Z,25.70
2018-06-30T19:12:28.356Z,25.70
2018-06-30T19:17:22.506Z,25.70
2018-06-30T19:19:49.979Z,25.70
2018-06-30T19:22:17.566Z,25.70
2018-06-30T19:24:44.564Z,25.70
2018-06-30T19:27:12.447Z,25.70
2018-06-30T19:29:39.384Z,25.70
2018-06-30T19:32:06.739Z,25.70
2018-06-30T19:34:33.761Z,25.70
2018-06-30T19:37:02.013Z,25.70
2018-06-30T19:39:28.919Z,25.70
2018-06-30T19:41:57.036Z,25.70
2018-06-30T19:44:24.676Z,25.70
2018-06-30T19:49:19.669Z,25.70
2018-06-30T19:51:46.600Z,25.70
2018-06-30T19:54:13.543Z,25.70
2018-06-30T19:56:40.580Z,25.70
2018-06-30T19:59:07.499Z,25.70
2018-06-30T20:01:34.445Z,25.70
2018-06-30T20:04:01.600Z,25.60
2018-06-30T20:06:29.729Z,25.70
2018-06-30T20:08:56.740Z,25.70
2018-06-30T20:11:23.679Z,25.70
2018-06-30T20:13:51.332Z,25.60
2018-06-30T20:16:18.700Z,25.70
2018-06-30T20:18:46.035Z,25.70
2018-06-30T20:21:13.320Z,25.70
2018-06-30T20:23:40.248Z,25.60
2018-06-30T20:26:07.149Z,25.60
2018-06-30T20:31:01.608Z,25.60
2018-06-30T20:33:28.660Z,25.60
2018-06-30T20:35:55.561Z,25.60
2018-06-30T20:38:22.491Z,25.60
2018-06-30T20:40:49.457Z,25.60
2018-06-30T20:43:16.548Z,25.60
2018-06-30T20:45:44.506Z,25.60
2018-06-30T20:48:11.686Z,25.60
2018-06-30T20:50:38.765Z,25.60
2018-06-30T20:53:05.706Z,25.60
2018-06-30T20:55:32.595Z,25.60
2018-06-30T20:57:59.499Z,25.60
2018-06-30T21:00:26.571Z,25.60
2018-06-30T21:02:53.488Z,25.60
2018-06-30T21:05:20.376Z,25.60
2018-06-30T21:07:47.303Z,25.70
2018-06-30T21:10:14.200Z,25.60
2018-06-30T21:12:41.101Z,25.70
2018-06-30T21:15:08.046Z,25.70
2018-06-30T21:17:35.289Z,25.70
2018-06-30T21:20:02.178Z,25.70
2018-06-30T21:22:29.435Z,25.70
2018-06-30T21:24:56.599Z,25.70
2018-06-30T21:27:23.778Z,25.70
2018-06-30T21:29:50.867Z,25.70
2018-06-30T21:32:17.785Z,25.70
2018-06-30T21:34:44.827Z,25.70
2018-06-30T21:37:11.942Z,25.70
2018-06-30T21:39:38.896Z,25.70
2018-06-30T21:42:05.808Z,25.70
2018-06-30T21:44:32.736Z,25.60
2018-06-30T21:46:59.644Z,25.60
2018-06-30T21:49:26.716Z,25.60
2018-06-30T21:51:53.668Z,25.60
2018-06-30T21:54:20.576Z,25.60
2018-06-30T21:56:47.529Z,25.60
2018-06-30T21:59:14.741Z,25.60
2018-06-30T22:01:41.652Z,25.60
2018-06-30T22:04:08.852Z,25.60
2018-06-30T22:06:35.792Z,25.60
2018-06-30T22:09:03.320Z,25.60
2018-06-30T22:11:30.273Z,25.50
2018-06-30T22:13:57.200Z,25.50
2018-06-30T22:16:24.121Z,25.50
2018-06-30T22:18:51.032Z,25.50
2018-06-30T22:21:17.991Z,25.50
2018-06-30T22:23:44.948Z,25.50
2018-06-30T22:26:11.897Z,25.50
2018-06-30T22:28:38.825Z,25.50
2018-06-30T22:31:05.731Z,25.50
2018-06-30T22:33:32.643Z,25.50
2018-06-30T22:35:59.592Z,25.50
2018-06-30T22:40:53.360Z,25.50
2018-06-30T22:43:20.280Z,25.50
2018-06-30T22:45:47.205Z,25.50
2018-06-30T22:48:14.143Z,25.40
2018-06-30T22:50:41.084Z,25.40
2018-06-30T22:53:08.021Z,25.40
2018-06-30T22:55:34.948Z,25.40
2018-06-30T22:58:01.889Z,25.40
2018-06-30T23:00:28.826Z,25.40
2018-06-30T23:02:55.792Z,25.40
2018-06-30T23:05:22.680Z,25.40
2018-06-30T23:07:49.627Z,25.40
2018-06-30T23:10:16.512Z,25.40
2018-06-30T23:12:44.044Z,25.40
2018-06-30T23:15:11.103Z,25.40
2018-06-30T23:17:38.373Z,25.40
2018-06-30T23:20:05.723Z,25.40
2018-06-30T23:22:36.236Z,25.40
2018-06-30T23:25:03.300Z,25.40
2018-06-30T23:27:30.317Z,25.40
2018-06-30T23:29:57.208Z,25.40
2018-06-30T23:37:17.900Z,25.30
2018-06-30T23:39:44.819Z,25.40
2018-06-30T23:42:11.747Z,25.40
2018-06-30T23:44:38.732Z,25.40
2018-06-30T23:47:05.692Z,25.40
2018-06-30T23:49:32.635Z,25.40
2018-06-30T23:51:59.589Z,25.40
2018-06-30T23:54:26.496Z,25.30
2018-06-30T23:56:53.412Z,25.30
2018-06-30T23:59:20.343Z,25.30
